sensor_id;sensor_type;location;lat;lon;timestamp;temperature;humidity
23301;DHT22;11819;51.394;12.340;2022-10-31T00:03:42;15.10;81.80
23301;DHT22;11819;51.394;12.340;2022-10-31T00:06:08;15.10;81.70
23301;DHT22;11819;51.394;12.340;2022-10-31T00:08:34;15.10;81.70
23301;DHT22;11819;51.394;12.340;2022-10-31T00:10:59;15.00;81.50
23301;DHT22;11819;51.394;12.340;2022-10-31T00:13:25;15.00;81.60
23301;DHT22;11819;51.394;12.340;2022-10-31T00:15:52;14.90;81.60
23301;DHT22;11819;51.394;12.340;2022-10-31T00:18:18;14.90;81.70
23301;DHT22;11819;51.394;12.340;2022-10-31T00:20:43;14.90;81.80
23301;DHT22;11819;51.394;12.340;2022-10-31T00:23:10;14.90;81.90
23301;DHT22;11819;51.394;12.340;2022-10-31T00:25:38;14.90;81.90
23301;DHT22;11819;51.394;12.340;2022-10-31T00:28:06;14.80;81.80
23301;DHT22;11819;51.394;12.340;2022-10-31T00:30:35;14.80;82.60
23301;DHT22;11819;51.394;12.340;2022-10-31T00:33:03;14.80;81.70
23301;DHT22;11819;51.394;12.340;2022-10-31T00:35:30;14.80;81.60
23301;DHT22;11819;51.394;12.340;2022-10-31T00:37:56;14.80;82.40
23301;DHT22;11819;51.394;12.340;2022-10-31T00:40:23;14.70;81.50
23301;DHT22;11819;51.394;12.340;2022-10-31T00:42:50;14.60;81.60
23301;DHT22;11819;51.394;12.340;2022-10-31T00:45:16;14.60;81.80
23301;DHT22;11819;51.394;12.340;2022-10-31T00:47:41;14.60;81.80
23301;DHT22;11819;51.394;12.340;2022-10-31T00:50:07;14.60;82.70
23301;DHT22;11819;51.394;12.340;2022-10-31T00:52:36;14.60;82.00
23301;DHT22;11819;51.394;12.340;2022-10-31T00:55:02;14.60;82.00
23301;DHT22;11819;51.394;12.340;2022-10-31T00:57:28;14.50;81.80
23301;DHT22;11819;51.394;12.340;2022-10-31T00:59:54;14.50;81.90
23301;DHT22;11819;51.394;12.340;2022-10-31T01:02:19;14.50;81.90
23301;DHT22;11819;51.394;12.340;2022-10-31T01:04:45;14.50;82.00
23301;DHT22;11819;51.394;12.340;2022-10-31T01:07:11;14.50;82.00
23301;DHT22;11819;51.394;12.340;2022-10-31T01:09:38;14.50;82.10
23301;DHT22;11819;51.394;12.340;2022-10-31T01:12:04;14.50;82.10
23301;DHT22;11819;51.394;12.340;2022-10-31T01:14:31;14.50;82.00
23301;DHT22;11819;51.394;12.340;2022-10-31T01:16:56;14.50;82.10
23301;DHT22;11819;51.394;12.340;2022-10-31T01:19:22;14.50;82.10
23301;DHT22;11819;51.394;12.340;2022-10-31T01:21:48;14.40;82.10
23301;DHT22;11819;51.394;12.340;2022-10-31T01:24:13;14.40;82.90
23301;DHT22;11819;51.394;12.340;2022-10-31T01:26:39;14.40;82.00
23301;DHT22;11819;51.394;12.340;2022-10-31T01:29:07;14.40;82.00
23301;DHT22;11819;51.394;12.340;2022-10-31T01:31:36;14.40;82.10
23301;DHT22;11819;51.394;12.340;2022-10-31T01:34:03;14.40;82.20
23301;DHT22;11819;51.394;12.340;2022-10-31T01:36:32;14.40;82.20
23301;DHT22;11819;51.394;12.340;2022-10-31T01:39:00;14.30;82.00
23301;DHT22;11819;51.394;12.340;2022-10-31T01:41:31;14.30;82.10
23301;DHT22;11819;51.394;12.340;2022-10-31T01:44:02;14.20;82.10
23301;DHT22;11819;51.394;12.340;2022-10-31T01:46:31;14.20;82.20
23301;DHT22;11819;51.394;12.340;2022-10-31T01:49:01;14.20;82.30
23301;DHT22;11819;51.394;12.340;2022-10-31T01:51:36;14.20;82.30
23301;DHT22;11819;51.394;12.340;2022-10-31T01:54:09;14.20;82.30
23301;DHT22;11819;51.394;12.340;2022-10-31T01:56:40;14.10;82.30
23301;DHT22;11819;51.394;12.340;2022-10-31T01:59:10;14.10;82.40
23301;DHT22;11819;51.394;12.340;2022-10-31T02:01:37;14.10;82.40
23301;DHT22;11819;51.394;12.340;2022-10-31T02:04:06;14.10;82.40
23301;DHT22;11819;51.394;12.340;2022-10-31T02:06:45;14.10;82.40
23301;DHT22;11819;51.394;12.340;2022-10-31T02:09:12;14.10;82.40
23301;DHT22;11819;51.394;12.340;2022-10-31T02:11:38;14.10;82.40
23301;DHT22;11819;51.394;12.340;2022-10-31T02:14:04;14.10;82.50
23301;DHT22;11819;51.394;12.340;2022-10-31T02:16:30;14.00;82.60
23301;DHT22;11819;51.394;12.340;2022-10-31T02:18:56;14.00;82.50
23301;DHT22;11819;51.394;12.340;2022-10-31T02:21:39;14.00;82.50
23301;DHT22;11819;51.394;12.340;2022-10-31T02:32:47;13.90;82.60
23301;DHT22;11819;51.394;12.340;2022-10-31T02:38:06;13.90;82.70
23301;DHT22;11819;51.394;12.340;2022-10-31T02:46:49;13.90;82.80
23301;DHT22;11819;51.394;12.340;2022-10-31T02:54:51;13.70;82.70
23301;DHT22;11819;51.394;12.340;2022-10-31T02:57:24;13.80;82.90
23301;DHT22;11819;51.394;12.340;2022-10-31T03:00:02;13.70;83.00
23301;DHT22;11819;51.394;12.340;2022-10-31T03:05:23;13.70;83.30
23301;DHT22;11819;51.394;12.340;2022-10-31T03:13:14;13.60;83.60
23301;DHT22;11819;51.394;12.340;2022-10-31T03:15:51;13.60;83.60
23301;DHT22;11819;51.394;12.340;2022-10-31T03:18:27;13.60;83.70
23301;DHT22;11819;51.394;12.340;2022-10-31T03:21:00;13.60;83.70
23301;DHT22;11819;51.394;12.340;2022-10-31T03:23:27;13.60;83.80
23301;DHT22;11819;51.394;12.340;2022-10-31T03:25:54;13.60;83.80
23301;DHT22;11819;51.394;12.340;2022-10-31T03:28:31;13.60;83.90
23301;DHT22;11819;51.394;12.340;2022-10-31T03:31:00;13.60;84.00
23301;DHT22;11819;51.394;12.340;2022-10-31T03:33:32;13.60;84.00
23301;DHT22;11819;51.394;12.340;2022-10-31T03:36:03;13.50;83.80
23301;DHT22;11819;51.394;12.340;2022-10-31T03:38:31;13.50;83.90
23301;DHT22;11819;51.394;12.340;2022-10-31T03:40:59;13.50;84.00
23301;DHT22;11819;51.394;12.340;2022-10-31T03:43:33;13.50;84.00
23301;DHT22;11819;51.394;12.340;2022-10-31T03:46:01;13.50;84.00
23301;DHT22;11819;51.394;12.340;2022-10-31T03:48:29;13.50;84.10
23301;DHT22;11819;51.394;12.340;2022-10-31T03:51:09;13.50;84.10
23301;DHT22;11819;51.394;12.340;2022-10-31T03:53:41;13.50;84.00
23301;DHT22;11819;51.394;12.340;2022-10-31T03:56:18;13.40;83.90
23301;DHT22;11819;51.394;12.340;2022-10-31T03:58:56;13.40;84.10
23301;DHT22;11819;51.394;12.340;2022-10-31T04:01:24;13.40;84.10
23301;DHT22;11819;51.394;12.340;2022-10-31T04:03:51;13.40;84.10
23301;DHT22;11819;51.394;12.340;2022-10-31T04:06:19;13.40;84.10
23301;DHT22;11819;51.394;12.340;2022-10-31T04:08:52;13.30;84.20
23301;DHT22;11819;51.394;12.340;2022-10-31T04:11:22;13.30;84.50
23301;DHT22;11819;51.394;12.340;2022-10-31T04:14:09;13.30;84.40
23301;DHT22;11819;51.394;12.340;2022-10-31T04:16:40;13.30;84.40
23301;DHT22;11819;51.394;12.340;2022-10-31T04:19:06;13.30;84.30
23301;DHT22;11819;51.394;12.340;2022-10-31T04:21:32;13.30;84.40
23301;DHT22;11819;51.394;12.340;2022-10-31T04:23:58;13.30;84.40
23301;DHT22;11819;51.394;12.340;2022-10-31T04:26:26;13.20;84.30
23301;DHT22;11819;51.394;12.340;2022-10-31T04:28:53;13.20;84.20
23301;DHT22;11819;51.394;12.340;2022-10-31T04:31:18;13.20;84.30
23301;DHT22;11819;51.394;12.340;2022-10-31T04:33:46;13.20;84.40
23301;DHT22;11819;51.394;12.340;2022-10-31T04:36:12;13.20;84.50
23301;DHT22;11819;51.394;12.340;2022-10-31T04:38:38;13.20;84.60
23301;DHT22;11819;51.394;12.340;2022-10-31T04:41:12;13.20;84.60
23301;DHT22;11819;51.394;12.340;2022-10-31T04:43:49;13.20;84.50
23301;DHT22;11819;51.394;12.340;2022-10-31T04:46:15;13.20;84.60
23301;DHT22;11819;51.394;12.340;2022-10-31T04:48:41;13.20;84.60
23301;DHT22;11819;51.394;12.340;2022-10-31T04:51:07;13.10;84.50
23301;DHT22;11819;51.394;12.340;2022-10-31T04:53:32;13.10;84.60
23301;DHT22;11819;51.394;12.340;2022-10-31T04:56:17;13.10;84.60
23301;DHT22;11819;51.394;12.340;2022-10-31T04:58:46;13.10;84.80
23301;DHT22;11819;51.394;12.340;2022-10-31T05:01:15;13.10;84.90
23301;DHT22;11819;51.394;12.340;2022-10-31T05:03:41;13.00;85.00
23301;DHT22;11819;51.394;12.340;2022-10-31T05:06:07;13.00;85.10
23301;DHT22;11819;51.394;12.340;2022-10-31T05:08:35;13.00;85.10
23301;DHT22;11819;51.394;12.340;2022-10-31T05:11:04;13.10;85.00
23301;DHT22;11819;51.394;12.340;2022-10-31T05:13:31;13.00;84.90
23301;DHT22;11819;51.394;12.340;2022-10-31T05:16:17;12.90;84.70
23301;DHT22;11819;51.394;12.340;2022-10-31T05:19:01;12.80;84.70
23301;DHT22;11819;51.394;12.340;2022-10-31T05:22:01;12.80;84.70
23301;DHT22;11819;51.394;12.340;2022-10-31T05:24:28;12.70;84.70
23301;DHT22;11819;51.394;12.340;2022-10-31T05:26:54;12.60;84.80
23301;DHT22;11819;51.394;12.340;2022-10-31T05:29:19;12.60;84.80
23301;DHT22;11819;51.394;12.340;2022-10-31T05:31:48;12.60;84.90
23301;DHT22;11819;51.394;12.340;2022-10-31T05:34:34;12.60;84.90
23301;DHT22;11819;51.394;12.340;2022-10-31T05:37:19;12.50;85.00
23301;DHT22;11819;51.394;12.340;2022-10-31T05:39:46;12.50;85.00
23301;DHT22;11819;51.394;12.340;2022-10-31T05:42:19;12.50;85.10
23301;DHT22;11819;51.394;12.340;2022-10-31T05:44:45;12.40;85.20
23301;DHT22;11819;51.394;12.340;2022-10-31T05:47:21;12.50;85.40
23301;DHT22;11819;51.394;12.340;2022-10-31T05:50:26;12.50;85.50
23301;DHT22;11819;51.394;12.340;2022-10-31T05:53:05;12.50;85.60
23301;DHT22;11819;51.394;12.340;2022-10-31T05:55:35;12.60;85.60
23301;DHT22;11819;51.394;12.340;2022-10-31T05:58:10;12.50;85.30
23301;DHT22;11819;51.394;12.340;2022-10-31T06:00:39;12.50;85.30
23301;DHT22;11819;51.394;12.340;2022-10-31T06:03:08;12.40;85.20
23301;DHT22;11819;51.394;12.340;2022-10-31T06:05:43;12.40;85.30
23301;DHT22;11819;51.394;12.340;2022-10-31T06:08:09;12.30;85.30
23301;DHT22;11819;51.394;12.340;2022-10-31T06:10:35;12.30;85.40
23301;DHT22;11819;51.394;12.340;2022-10-31T06:13:01;12.30;85.50
23301;DHT22;11819;51.394;12.340;2022-10-31T06:15:41;12.20;85.60
23301;DHT22;11819;51.394;12.340;2022-10-31T06:18:08;12.20;85.80
23301;DHT22;11819;51.394;12.340;2022-10-31T06:20:42;12.30;86.00
23301;DHT22;11819;51.394;12.340;2022-10-31T06:23:08;12.30;86.10
23301;DHT22;11819;51.394;12.340;2022-10-31T06:25:34;12.30;86.20
23301;DHT22;11819;51.394;12.340;2022-10-31T06:28:00;12.30;86.30
23301;DHT22;11819;51.394;12.340;2022-10-31T06:30:36;12.40;86.40
23301;DHT22;11819;51.394;12.340;2022-10-31T06:33:06;12.40;86.50
23301;DHT22;11819;51.394;12.340;2022-10-31T06:35:36;12.40;86.70
23301;DHT22;11819;51.394;12.340;2022-10-31T06:38:01;12.40;86.70
23301;DHT22;11819;51.394;12.340;2022-10-31T06:40:36;12.40;86.70
23301;DHT22;11819;51.394;12.340;2022-10-31T06:43:16;12.40;86.70
23301;DHT22;11819;51.394;12.340;2022-10-31T06:45:43;12.40;86.70
23301;DHT22;11819;51.394;12.340;2022-10-31T06:48:20;12.40;86.70
23301;DHT22;11819;51.394;12.340;2022-10-31T06:51:12;12.50;86.70
23301;DHT22;11819;51.394;12.340;2022-10-31T06:53:37;12.50;86.60
23301;DHT22;11819;51.394;12.340;2022-10-31T06:56:05;12.50;86.70
23301;DHT22;11819;51.394;12.340;2022-10-31T06:58:36;12.50;86.70
23301;DHT22;11819;51.394;12.340;2022-10-31T07:01:05;12.50;86.70
23301;DHT22;11819;51.394;12.340;2022-10-31T07:03:32;12.50;86.70
23301;DHT22;11819;51.394;12.340;2022-10-31T07:05:58;12.50;86.80
23301;DHT22;11819;51.394;12.340;2022-10-31T07:08:24;12.50;86.90
23301;DHT22;11819;51.394;12.340;2022-10-31T07:10:52;12.60;87.00
23301;DHT22;11819;51.394;12.340;2022-10-31T07:13:19;12.60;87.10
23301;DHT22;11819;51.394;12.340;2022-10-31T07:15:54;12.60;87.20
23301;DHT22;11819;51.394;12.340;2022-10-31T07:18:21;12.70;87.30
23301;DHT22;11819;51.394;12.340;2022-10-31T07:20:52;12.70;87.30
23301;DHT22;11819;51.394;12.340;2022-10-31T07:23:19;12.80;87.40
23301;DHT22;11819;51.394;12.340;2022-10-31T07:25:56;12.80;87.40
23301;DHT22;11819;51.394;12.340;2022-10-31T07:28:26;12.90;87.40
23301;DHT22;11819;51.394;12.340;2022-10-31T07:30:53;12.90;87.40
23301;DHT22;11819;51.394;12.340;2022-10-31T07:33:21;13.00;87.40
23301;DHT22;11819;51.394;12.340;2022-10-31T07:36:07;13.00;87.50
23301;DHT22;11819;51.394;12.340;2022-10-31T07:38:34;13.00;87.60
23301;DHT22;11819;51.394;12.340;2022-10-31T07:41:03;13.10;87.70
23301;DHT22;11819;51.394;12.340;2022-10-31T07:43:31;13.10;87.70
23301;DHT22;11819;51.394;12.340;2022-10-31T07:46:15;13.10;87.70
23301;DHT22;11819;51.394;12.340;2022-10-31T07:48:46;13.20;87.80
23301;DHT22;11819;51.394;12.340;2022-10-31T07:51:31;13.20;87.80
23301;DHT22;11819;51.394;12.340;2022-10-31T07:54:14;13.20;87.90
23301;DHT22;11819;51.394;12.340;2022-10-31T07:56:41;13.20;88.10
23301;DHT22;11819;51.394;12.340;2022-10-31T07:59:07;13.20;88.10
23301;DHT22;11819;51.394;12.340;2022-10-31T08:01:33;13.30;88.20
23301;DHT22;11819;51.394;12.340;2022-10-31T08:04:19;13.30;88.30
23301;DHT22;11819;51.394;12.340;2022-10-31T08:07:23;13.30;88.40
23301;DHT22;11819;51.394;12.340;2022-10-31T08:10:04;13.40;88.50
23301;DHT22;11819;51.394;12.340;2022-10-31T08:12:30;13.40;88.60
23301;DHT22;11819;51.394;12.340;2022-10-31T08:14:58;13.40;88.60
23301;DHT22;11819;51.394;12.340;2022-10-31T08:17:24;13.50;88.70
23301;DHT22;11819;51.394;12.340;2022-10-31T08:19:55;13.50;88.60
23301;DHT22;11819;51.394;12.340;2022-10-31T08:22:26;13.60;88.70
23301;DHT22;11819;51.394;12.340;2022-10-31T08:24:52;13.60;89.40
23301;DHT22;11819;51.394;12.340;2022-10-31T08:27:18;13.70;88.60
23301;DHT22;11819;51.394;12.340;2022-10-31T08:29:44;13.70;88.50
23301;DHT22;11819;51.394;12.340;2022-10-31T08:32:12;13.80;88.60
23301;DHT22;11819;51.394;12.340;2022-10-31T08:34:57;13.80;88.60
23301;DHT22;11819;51.394;12.340;2022-10-31T08:37:43;13.90;88.60
23301;DHT22;11819;51.394;12.340;2022-10-31T08:40:10;14.00;88.60
23301;DHT22;11819;51.394;12.340;2022-10-31T08:42:36;14.10;88.50
23301;DHT22;11819;51.394;12.340;2022-10-31T08:45:03;14.10;88.40
23301;DHT22;11819;51.394;12.340;2022-10-31T08:47:31;14.20;88.40
23301;DHT22;11819;51.394;12.340;2022-10-31T08:49:57;14.20;88.30
23301;DHT22;11819;51.394;12.340;2022-10-31T08:52:24;14.30;88.40
23301;DHT22;11819;51.394;12.340;2022-10-31T08:54:51;14.30;88.50
23301;DHT22;11819;51.394;12.340;2022-10-31T08:57:46;14.40;88.60
23301;DHT22;11819;51.394;12.340;2022-10-31T09:00:12;14.50;88.70
23301;DHT22;11819;51.394;12.340;2022-10-31T09:03:06;14.50;88.60
23301;DHT22;11819;51.394;12.340;2022-10-31T09:05:33;14.60;88.70
23301;DHT22;11819;51.394;12.340;2022-10-31T09:08:00;14.70;88.80
23301;DHT22;11819;51.394;12.340;2022-10-31T09:10:27;14.70;89.10
23301;DHT22;11819;51.394;12.340;2022-10-31T09:13:02;14.70;89.20
23301;DHT22;11819;51.394;12.340;2022-10-31T09:16:04;14.80;89.40
23301;DHT22;11819;51.394;12.340;2022-10-31T09:18:30;14.90;90.00
23301;DHT22;11819;51.394;12.340;2022-10-31T09:20:59;15.00;90.10
23301;DHT22;11819;51.394;12.340;2022-10-31T09:23:26;15.00;90.20
23301;DHT22;11819;51.394;12.340;2022-10-31T09:25:53;15.00;90.60
23301;DHT22;11819;51.394;12.340;2022-10-31T09:28:42;15.10;90.30
23301;DHT22;11819;51.394;12.340;2022-10-31T09:31:12;15.20;90.40
23301;DHT22;11819;51.394;12.340;2022-10-31T09:33:59;15.20;90.50
23301;DHT22;11819;51.394;12.340;2022-10-31T09:36:31;15.30;90.60
23301;DHT22;11819;51.394;12.340;2022-10-31T09:38:57;15.30;90.70
23301;DHT22;11819;51.394;12.340;2022-10-31T09:44:57;15.40;90.80
23301;DHT22;11819;51.394;12.340;2022-10-31T09:53:39;15.50;91.00
23301;DHT22;11819;51.394;12.340;2022-10-31T09:56:15;15.50;91.00
23301;DHT22;11819;51.394;12.340;2022-10-31T09:58:52;15.50;91.00
23301;DHT22;11819;51.394;12.340;2022-10-31T10:04:03;15.60;91.10
23301;DHT22;11819;51.394;12.340;2022-10-31T10:06:53;15.60;91.10
23301;DHT22;11819;51.394;12.340;2022-10-31T10:09:39;15.70;91.20
23301;DHT22;11819;51.394;12.340;2022-10-31T10:12:51;15.70;91.20
23301;DHT22;11819;51.394;12.340;2022-10-31T10:27:15;15.90;91.30
23301;DHT22;11819;51.394;12.340;2022-10-31T10:30:04;15.90;91.30
23301;DHT22;11819;51.394;12.340;2022-10-31T10:32:59;15.90;91.30
23301;DHT22;11819;51.394;12.340;2022-10-31T10:35:31;16.00;91.40
23301;DHT22;11819;51.394;12.340;2022-10-31T10:40:52;16.00;91.30
23301;DHT22;11819;51.394;12.340;2022-10-31T10:43:33;16.00;91.30
23301;DHT22;11819;51.394;12.340;2022-10-31T10:46:26;16.10;91.40
23301;DHT22;11819;51.394;12.340;2022-10-31T10:49:19;16.10;91.30
23301;DHT22;11819;51.394;12.340;2022-10-31T10:51:58;16.10;91.30
23301;DHT22;11819;51.394;12.340;2022-10-31T10:57:32;16.20;91.30
23301;DHT22;11819;51.394;12.340;2022-10-31T11:00:18;16.20;91.40
23301;DHT22;11819;51.394;12.340;2022-10-31T11:02:44;16.30;91.40
23301;DHT22;11819;51.394;12.340;2022-10-31T11:07:48;16.30;91.30
23301;DHT22;11819;51.394;12.340;2022-10-31T11:10:15;16.30;91.40
23301;DHT22;11819;51.394;12.340;2022-10-31T11:12:46;16.30;91.30
23301;DHT22;11819;51.394;12.340;2022-10-31T11:15:24;16.40;91.40
23301;DHT22;11819;51.394;12.340;2022-10-31T11:17:55;16.40;91.40
23301;DHT22;11819;51.394;12.340;2022-10-31T11:20:34;16.50;91.40
23301;DHT22;11819;51.394;12.340;2022-10-31T11:23:18;16.50;91.40
23301;DHT22;11819;51.394;12.340;2022-10-31T11:25:54;16.50;91.40
23301;DHT22;11819;51.394;12.340;2022-10-31T11:28:20;16.50;91.40
23301;DHT22;11819;51.394;12.340;2022-10-31T11:31:11;16.50;91.30
23301;DHT22;11819;51.394;12.340;2022-10-31T11:33:49;16.60;91.40
23301;DHT22;11819;51.394;12.340;2022-10-31T11:36:24;16.60;91.30
23301;DHT22;11819;51.394;12.340;2022-10-31T11:38:51;16.70;91.40
23301;DHT22;11819;51.394;12.340;2022-10-31T11:43:54;16.70;91.30
23301;DHT22;11819;51.394;12.340;2022-10-31T11:48:55;16.80;91.30
23301;DHT22;11819;51.394;12.340;2022-10-31T11:51:32;16.90;91.30
23301;DHT22;11819;51.394;12.340;2022-10-31T11:53:59;16.90;91.20
23301;DHT22;11819;51.394;12.340;2022-10-31T11:56:27;17.00;91.30
23301;DHT22;11819;51.394;12.340;2022-10-31T11:59:14;17.00;91.30
23301;DHT22;11819;51.394;12.340;2022-10-31T12:01:47;17.10;91.30
23301;DHT22;11819;51.394;12.340;2022-10-31T12:04:14;17.10;91.20
23301;DHT22;11819;51.394;12.340;2022-10-31T12:06:43;17.20;91.20
23301;DHT22;11819;51.394;12.340;2022-10-31T12:09:21;17.20;91.10
23301;DHT22;11819;51.394;12.340;2022-10-31T12:14:51;17.30;91.00
23301;DHT22;11819;51.394;12.340;2022-10-31T12:17:21;17.40;90.90
23301;DHT22;11819;51.394;12.340;2022-10-31T12:22:42;17.50;90.90
23301;DHT22;11819;51.394;12.340;2022-10-31T12:37:23;17.70;90.70
23301;DHT22;11819;51.394;12.340;2022-10-31T12:42:48;17.80;90.50
23301;DHT22;11819;51.394;12.340;2022-10-31T12:45:45;17.80;90.50
23301;DHT22;11819;51.394;12.340;2022-10-31T12:48:44;17.90;90.50
23301;DHT22;11819;51.394;12.340;2022-10-31T12:59:44;18.10;90.30
23301;DHT22;11819;51.394;12.340;2022-10-31T13:02:33;18.10;90.30
23301;DHT22;11819;51.394;12.340;2022-10-31T13:05:21;18.20;90.30
23301;DHT22;11819;51.394;12.340;2022-10-31T13:07:57;18.30;90.40
23301;DHT22;11819;51.394;12.340;2022-10-31T13:10:35;18.40;90.40
23301;DHT22;11819;51.394;12.340;2022-10-31T13:13:07;18.50;90.20
23301;DHT22;11819;51.394;12.340;2022-10-31T13:15:50;18.60;90.00
23301;DHT22;11819;51.394;12.340;2022-10-31T13:18:44;18.60;89.90
23301;DHT22;11819;51.394;12.340;2022-10-31T13:21:17;18.60;89.60
23301;DHT22;11819;51.394;12.340;2022-10-31T13:23:44;18.60;89.40
23301;DHT22;11819;51.394;12.340;2022-10-31T13:26:17;18.60;89.10
23301;DHT22;11819;51.394;12.340;2022-10-31T13:28:56;18.60;89.00
23301;DHT22;11819;51.394;12.340;2022-10-31T13:31:23;18.60;88.80
23301;DHT22;11819;51.394;12.340;2022-10-31T13:33:55;18.50;88.60
23301;DHT22;11819;51.394;12.340;2022-10-31T13:36:43;18.50;89.50
23301;DHT22;11819;51.394;12.340;2022-10-31T13:41:53;18.40;88.60
23301;DHT22;11819;51.394;12.340;2022-10-31T13:44:25;18.30;88.50
23301;DHT22;11819;51.394;12.340;2022-10-31T13:46:53;18.30;88.50
23301;DHT22;11819;51.394;12.340;2022-10-31T13:51:51;18.20;88.50
23301;DHT22;11819;51.394;12.340;2022-10-31T13:54:30;18.20;88.50
23301;DHT22;11819;51.394;12.340;2022-10-31T13:56:56;18.20;88.60
23301;DHT22;11819;51.394;12.340;2022-10-31T13:59:23;18.10;88.50
23301;DHT22;11819;51.394;12.340;2022-10-31T14:02:01;18.10;88.50
23301;DHT22;11819;51.394;12.340;2022-10-31T14:04:48;18.10;88.50
23301;DHT22;11819;51.394;12.340;2022-10-31T14:07:25;18.00;88.50
23301;DHT22;11819;51.394;12.340;2022-10-31T14:10:03;18.00;88.50
23301;DHT22;11819;51.394;12.340;2022-10-31T14:12:46;18.00;88.50
23301;DHT22;11819;51.394;12.340;2022-10-31T14:15:16;17.90;88.50
23301;DHT22;11819;51.394;12.340;2022-10-31T14:17:55;18.00;88.60
23301;DHT22;11819;51.394;12.340;2022-10-31T14:20:42;17.90;88.50
23301;DHT22;11819;51.394;12.340;2022-10-31T14:23:32;17.90;88.60
23301;DHT22;11819;51.394;12.340;2022-10-31T14:28:50;17.80;88.70
23301;DHT22;11819;51.394;12.340;2022-10-31T14:34:26;17.80;88.80
23301;DHT22;11819;51.394;12.340;2022-10-31T14:45:23;17.60;89.00
23301;DHT22;11819;51.394;12.340;2022-10-31T14:51:01;17.60;89.10
23301;DHT22;11819;51.394;12.340;2022-10-31T14:53:34;17.60;89.20
23301;DHT22;11819;51.394;12.340;2022-10-31T14:56:01;17.60;89.30
23301;DHT22;11819;51.394;12.340;2022-10-31T14:58:46;17.50;89.20
23301;DHT22;11819;51.394;12.340;2022-10-31T15:01:33;17.50;89.20
23301;DHT22;11819;51.394;12.340;2022-10-31T15:04:22;17.50;89.40
23301;DHT22;11819;51.394;12.340;2022-10-31T15:07:00;17.40;89.40
23301;DHT22;11819;51.394;12.340;2022-10-31T15:09:33;17.40;89.50
23301;DHT22;11819;51.394;12.340;2022-10-31T15:12:00;17.30;89.60
23301;DHT22;11819;51.394;12.340;2022-10-31T15:14:28;17.30;89.70
23301;DHT22;11819;51.394;12.340;2022-10-31T15:16:56;17.30;89.80
23301;DHT22;11819;51.394;12.340;2022-10-31T15:19:25;17.30;89.80
23301;DHT22;11819;51.394;12.340;2022-10-31T15:21:53;17.20;89.90
23301;DHT22;11819;51.394;12.340;2022-10-31T15:24:20;17.20;90.00
23301;DHT22;11819;51.394;12.340;2022-10-31T15:26:48;17.10;90.00
23301;DHT22;11819;51.394;12.340;2022-10-31T15:29:17;17.10;90.10
23301;DHT22;11819;51.394;12.340;2022-10-31T15:32:18;17.00;90.10
23301;DHT22;11819;51.394;12.340;2022-10-31T15:34:44;17.00;90.10
23301;DHT22;11819;51.394;12.340;2022-10-31T15:37:15;17.00;90.20
23301;DHT22;11819;51.394;12.340;2022-10-31T15:39:42;16.90;90.10
23301;DHT22;11819;51.394;12.340;2022-10-31T15:42:29;16.90;90.20
23301;DHT22;11819;51.394;12.340;2022-10-31T15:47:37;16.80;90.30
23301;DHT22;11819;51.394;12.340;2022-10-31T15:50:16;16.70;90.30
23301;DHT22;11819;51.394;12.340;2022-10-31T15:52:45;16.70;90.40
23301;DHT22;11819;51.394;12.340;2022-10-31T15:55:23;16.70;90.40
23301;DHT22;11819;51.394;12.340;2022-10-31T15:57:55;16.60;90.40
23301;DHT22;11819;51.394;12.340;2022-10-31T16:05:52;16.50;90.50
23301;DHT22;11819;51.394;12.340;2022-10-31T16:11:02;16.50;90.60
23301;DHT22;11819;51.394;12.340;2022-10-31T16:14:01;16.50;90.70
23301;DHT22;11819;51.394;12.340;2022-10-31T16:16:28;16.40;90.70
23301;DHT22;11819;51.394;12.340;2022-10-31T16:18:56;16.40;90.80
23301;DHT22;11819;51.394;12.340;2022-10-31T16:21:44;16.40;90.80
23301;DHT22;11819;51.394;12.340;2022-10-31T16:24:26;16.40;90.80
23301;DHT22;11819;51.394;12.340;2022-10-31T16:27:02;16.40;90.80
23301;DHT22;11819;51.394;12.340;2022-10-31T16:29:46;16.30;90.80
23301;DHT22;11819;51.394;12.340;2022-10-31T16:32:28;16.30;90.80
23301;DHT22;11819;51.394;12.340;2022-10-31T16:35:15;16.20;90.80
23301;DHT22;11819;51.394;12.340;2022-10-31T16:37:42;16.20;90.80
23301;DHT22;11819;51.394;12.340;2022-10-31T16:40:11;16.10;90.90
23301;DHT22;11819;51.394;12.340;2022-10-31T16:42:36;16.10;90.90
23301;DHT22;11819;51.394;12.340;2022-10-31T16:45:02;16.10;91.00
23301;DHT22;11819;51.394;12.340;2022-10-31T16:47:30;16.10;91.00
23301;DHT22;11819;51.394;12.340;2022-10-31T16:49:55;16.10;91.00
23301;DHT22;11819;51.394;12.340;2022-10-31T16:52:25;16.00;91.00
23301;DHT22;11819;51.394;12.340;2022-10-31T16:54:51;16.00;91.00
23301;DHT22;11819;51.394;12.340;2022-10-31T16:57:26;16.00;91.00
23301;DHT22;11819;51.394;12.340;2022-10-31T16:59:53;16.00;91.00
23301;DHT22;11819;51.394;12.340;2022-10-31T17:02:19;16.00;91.00
23301;DHT22;11819;51.394;12.340;2022-10-31T17:04:45;15.90;91.10
23301;DHT22;11819;51.394;12.340;2022-10-31T17:07:11;15.90;91.10
23301;DHT22;11819;51.394;12.340;2022-10-31T17:09:37;15.90;91.10
23301;DHT22;11819;51.394;12.340;2022-10-31T17:12:03;15.90;91.10
23301;DHT22;11819;51.394;12.340;2022-10-31T17:14:31;15.90;91.10
23301;DHT22;11819;51.394;12.340;2022-10-31T17:16:57;15.90;91.20
23301;DHT22;11819;51.394;12.340;2022-10-31T17:19:23;15.80;91.10
23301;DHT22;11819;51.394;12.340;2022-10-31T17:21:48;15.80;91.20
23301;DHT22;11819;51.394;12.340;2022-10-31T17:24:14;15.80;91.20
23301;DHT22;11819;51.394;12.340;2022-10-31T17:26:42;15.80;91.20
23301;DHT22;11819;51.394;12.340;2022-10-31T17:29:07;15.80;91.20
23301;DHT22;11819;51.394;12.340;2022-10-31T17:31:34;15.80;91.20
23301;DHT22;11819;51.394;12.340;2022-10-31T17:34:01;15.70;91.20
23301;DHT22;11819;51.394;12.340;2022-10-31T17:36:30;15.70;91.20
23301;DHT22;11819;51.394;12.340;2022-10-31T17:38:56;15.70;91.20
23301;DHT22;11819;51.394;12.340;2022-10-31T17:41:22;15.70;91.20
23301;DHT22;11819;51.394;12.340;2022-10-31T17:43:47;15.60;91.20
23301;DHT22;11819;51.394;12.340;2022-10-31T17:46:13;15.60;91.30
23301;DHT22;11819;51.394;12.340;2022-10-31T17:48:39;15.60;91.30
23301;DHT22;11819;51.394;12.340;2022-10-31T17:51:05;15.60;91.30
23301;DHT22;11819;51.394;12.340;2022-10-31T17:53:33;15.50;91.60
23301;DHT22;11819;51.394;12.340;2022-10-31T17:56:04;15.50;91.20
23301;DHT22;11819;51.394;12.340;2022-10-31T17:58:31;15.50;91.20
23301;DHT22;11819;51.394;12.340;2022-10-31T18:00:57;15.40;91.20